Valdosta, GA

8:41 PM EDT on August 22, 2014 (GMT -0400)
Audio Video and Security Inc. | Change Station
CLOSE
Current Station
Personal Weather Station
Location: Valdosta, GA
Elevation: 220 ft
Nearby Weather Stations
Active Advisory: Heat Advisory Active Notice: Record Report

Elev 220 ft 30.81 °N, 83.32 °W | Updated 12 seconds ago

Clear
Clear
85.6 °F
Feels Like 88 °F
N
0.0
Wind Variable Wind from SSW
Gusts 0.0 mph

Today
High -- | Low -- °F
--% Chance of Precip.
Yesterday
High -- | Low -- °F
Precip. -- in
7:03 AM 8:07 PM
Waning Crescent, 6% visible
Pressure 30.01 in
Visibility 10.0 miles
Clouds Clear
Heat Index 88 °F
Dew Point 66 °F
Humidity 52%
Rainfall 0.00 in
Snow Depth Not available.
UV 0 out of 12
Pollen 8.20 out of 12
Air Quality Not available.
Flu Activity Not available.
METAR KVLD 222353Z 00000KT 10SM CLR 32/22 A2999 RMK AO2 SLP160 T03170217 10372 20317 55000

More Conditions Fewer Conditions

Pressure 30.01 in
Visibility 10.0 miles
Clouds Clear
Heat Index 88 °F
Dew Point 66 °F
Humidity 52%
Rainfall 0.00 in
Snow Depth Not available.
UV 0 out of 12
Pollen 8.20 out of 12
Air Quality Not available.
Flu Activity Not available.
METAR KVLD 222353Z 00000KT 10SM CLR 32/22 A2999 RMK AO2 SLP160 T03170217 10372 20317 55000

More Conditions Fewer Conditions

10-Day Weather Forecast

Almanac

Astronomy

Aug. 22, 2014 Rise Set
Actual Time 7:03 AM EDT 8:07 PM EDT
Civil Twilight 6:38 AM EDT 8:32 PM EDT
Nautical Twilight 6:09 AM EDT 9:02 PM EDT
Astronomical Twilight 5:38 AM EDT 9:32 PM EDT
Moon 4:30 AM EDT (8/22) 6:11 PM EDT (8/22)
Length of Visible Light 13h 54m
Length of Day
13h 04m
Tomorrow will be 1m 43s shorter.
Waning Crescent, 6% of the Moon is Illuminated
Today
Waning Crescent
Aug 25
New
Sep 2
First Quarter
Sep 8
Full
Sep 15
Last Quarter

Today's Extremes

State Highs State Lows

Community

WunderPhotos

Upload Photos

1,746,326 photos uploaded!

WunderBlogs® & News

Nearby

Snow Depth

Station Depth Elevation
No new snow has been reported.

Earthquake Activity

City Distance Mag. Time & Date
No recent earthquake activity has been reported nearby.
Minimum magnitude displayed is 2.5.

Coastal Water Temperatures

Place Temperature
No Stations Reporting

Nearby Weather Stations